KMDD/MDD METAR and TAF weather

Enter ICAO airport designator
Station Type Date Time Source
KMDD METAR 2021/07/26 13:15 UTC NOAA

KMDD 261315Z AUTO 19008KT 10SM CLR 25/17 A3007 RMK AO2 T02470167


Station Type Date Time Source
KMDD Decoded METAR 2021/07/26 13:15 UTC NOAA

Midland, Midland Airpark, TX, United States (KMDD) 32-02-11N 102-06-03W
Jul 26, 2021 - 09:15 AM EDT / 2021.07.26 1315 UTC
Wind: from the S (190 degrees) at 9 MPH (8 KT):0
Visibility: 10 mile(s):0
Sky conditions: clear
Temperature: 76.5 F (24.7 C)
Dew Point: 62.1 F (16.7 C)
Relative Humidity: 61%
Pressure (altimeter): 30.07 in. Hg (1018 hPa)
ob: KMDD 261315Z AUTO 19008KT 10SM CLR 25/17 A3007 RMK AO2 T02470167
cycle: 13

Station Type Date Time Source
KMDD TAF UTC NOAA

Error!

Example: see airport list